Time;durP1;ratioP1;P1;durP2;ratioP2;P2;SDS_P1;SDS_P2;PMS_P1;PMS_P2;Temp;Humidity;BMP_temperature;BMP_pressure;BME280_temperature;BME280_humidity;BME280_pressure;Samples;Min_cycle;Max_cycle;Signal;HPM_P1;HPM_P2
2022/07/28 00:04:42;;;;;;;3.70;2.00;;;;;;;7.89;100.00;96906.16;10367357;28;20566;-59
2022/07/28 00:09:42;;;;;;;4.13;2.17;;;;;;;7.90;100.00;96915.66;10367397;28;20225;-60
2022/07/28 00:14:43;;;;;;;5.70;2.03;;;;;;;7.81;100.00;96902.47;10367194;28;20629;-59
2022/07/28 00:19:43;;;;;;;3.70;2.10;;;;;;;7.71;100.00;96895.59;10366639;28;20237;-56
2022/07/28 00:24:44;;;;;;;4.57;2.67;;;;;;;7.66;100.00;96907.22;10366958;28;20225;-51
2022/07/28 00:29:44;;;;;;;4.97;2.10;;;;;;;7.59;100.00;96905.28;10366815;28;20308;-52
2022/07/28 00:34:45;;;;;;;6.00;2.10;;;;;;;7.48;100.00;96912.25;10366801;28;20189;-53
2022/07/28 00:39:45;;;;;;;4.13;2.27;;;;;;;7.49;100.00;96905.28;10366814;28;20221;-51
2022/07/28 00:44:46;;;;;;;4.80;2.10;;;;;;;7.44;100.00;96910.88;10366717;28;20735;-51
2022/07/28 00:49:47;;;;;;;6.20;2.77;;;;;;;7.36;100.00;96900.28;10366756;28;20755;-51
2022/07/28 00:54:47;;;;;;;3.77;1.87;;;;;;;7.38;100.00;96893.16;10366396;28;20204;-53
2022/07/28 00:59:47;;;;;;;3.70;1.70;;;;;;;7.34;100.00;96896.97;10365688;28;20244;-51
2022/07/28 01:04:48;;;;;;;4.13;2.63;;;;;;;7.34;100.00;96896.97;10366146;28;20584;-51
2022/07/28 01:10:05;;;;;;;6.77;2.10;;;;;;;7.34;100.00;96888.34;10364852;28;20695;-51
2022/07/28 01:15:11;;;;;;;4.57;2.30;;;;;;;7.21;100.00;96886.75;10364701;28;20239;-51
2022/07/28 01:20:15;;;;;;;4.27;2.47;;;;;;;7.26;100.00;96892.44;10365046;28;20237;-53
2022/07/28 01:25:21;;;;;;;4.60;2.40;;;;;;;7.23;100.00;96892.69;10364990;28;20585;-52
2022/07/28 01:30:24;;;;;;;7.47;2.50;;;;;;;7.22;100.00;96882.41;10365710;28;20232;-51
2022/07/28 01:35:32;;;;;;;6.40;2.70;;;;;;;7.21;100.00;96886.75;10365753;28;20280;-53
2022/07/28 01:40:34;;;;;;;4.37;2.20;;;;;;;7.15;100.00;96884.69;10364443;28;20574;-51
2022/07/28 01:45:36;;;;;;;3.67;2.37;;;;;;;7.08;100.00;96887.00;10371891;28;20248;-51
2022/07/28 01:50:38;;;;;;;5.03;2.53;;;;;;;7.09;100.00;96883.44;10371306;28;20182;-54
2022/07/28 01:55:41;;;;;;;6.60;2.40;;;;;;;7.07;100.00;96887.94;10371481;28;20193;-51
2022/07/28 02:00:43;;;;;;;6.13;2.30;;;;;;;7.01;100.00;96882.44;10370965;28;20240;-51
2022/07/28 02:05:45;;;;;;;5.73;2.20;;;;;;;6.96;100.00;96878.44;10354511;28;20220;-51
2022/07/28 02:11:38;;;;;;;4.43;2.10;;;;;;;6.89;100.00;96874.72;10370838;28;20189;-51
2022/07/28 02:16:07;;;;;;;4.93;2.40;;;;;;;6.87;100.00;96878.41;10370365;28;20241;-51
2022/07/28 02:21:08;;;;;;;6.90;2.77;;;;;;;6.94;100.00;96879.53;10371164;28;20636;-51
2022/07/28 02:26:10;;;;;;;4.23;2.83;;;;;;;6.85;100.00;96873.31;10370994;28;20287;-55
2022/07/28 02:31:17;;;;;;;6.17;2.70;;;;;;;6.79;100.00;96866.84;10370210;28;20308;-51
2022/07/28 02:36:26;;;;;;;5.87;2.53;;;;;;;6.84;100.00;96876.88;10369513;28;20716;-52
2022/07/28 02:41:28;;;;;;;2.70;2.03;;;;;;;6.82;100.00;96881.38;10369732;28;20664;-51
2022/07/28 02:46:37;;;;;;;8.10;2.37;;;;;;;6.78;100.00;96893.00;10369380;28;20281;-51
2022/07/28 02:51:39;;;;;;;3.93;2.77;;;;;;;6.77;100.00;96893.97;10369051;28;20237;-52
2022/07/28 02:56:41;;;;;;;3.50;2.10;;;;;;;6.83;100.00;96890.00;10368975;28;20201;-52
2022/07/28 03:01:42;;;;;;;3.50;2.33;;;;;;;6.71;100.00;96884.91;10370006;28;20267;-52
2022/07/28 03:06:42;;;;;;;5.83;2.30;;;;;;;6.68;100.00;96881.72;10370065;28;20232;-60
2022/07/28 03:11:52;;;;;;;3.60;2.03;;;;;;;6.70;100.00;96885.84;10368669;28;20250;-60
2022/07/28 03:16:52;;;;;;;5.80;2.20;;;;;;;6.70;100.00;96883.22;10369155;28;20274;-58
2022/07/28 03:21:53;;;;;;;3.00;2.23;;;;;;;6.65;100.00;96892.41;10369024;28;20699;-52
2022/07/28 03:27:10;;;;;;;6.83;3.00;;;;;;;6.63;100.00;96887.31;10368632;28;20595;-52
2022/07/28 03:32:11;;;;;;;8.37;2.67;;;;;;;6.57;100.00;96898.22;10367994;28;20196;-53
2022/07/28 03:37:15;;;;;;;6.23;3.13;;;;;;;6.52;100.00;96903.78;10367157;28;20650;-51
2022/07/28 03:42:19;;;;;;;6.53;2.50;;;;;;;6.57;100.00;96908.63;10367435;28;20201;-52
2022/07/28 03:47:21;;;;;;;5.63;2.63;;;;;;;6.49;100.00;96909.25;10366895;28;20720;-53
2022/07/28 03:52:22;;;;;;;7.30;2.43;;;;;;;6.60;100.00;96909.22;10368265;28;20727;-53
2022/07/28 03:57:22;;;;;;;5.10;2.90;;;;;;;6.60;100.00;96911.00;10367950;28;20217;-52
2022/07/28 04:02:22;;;;;;;7.73;3.03;;;;;;;6.60;100.00;96909.22;10367874;28;20256;-51
2022/07/28 04:07:23;;;;;;;4.47;2.60;;;;;;;6.71;100.00;96910.94;10367699;28;20220;-51
2022/07/28 04:12:23;;;;;;;9.90;2.90;;;;;;;6.65;100.00;96911.44;10367559;28;20243;-51
2022/07/28 04:17:23;;;;;;;8.40;2.90;;;;;;;6.79;100.00;96913.72;10367129;28;20240;-53
2022/07/28 04:22:24;;;;;;;4.90;2.83;;;;;;;6.88;100.00;96900.88;10365758;28;20201;-51
2022/07/28 04:27:24;;;;;;;5.67;2.77;;;;;;;6.92;100.00;96903.09;10366518;28;20316;-53
2022/07/28 04:32:24;;;;;;;5.73;2.40;;;;;;;7.16;100.00;96909.78;10367029;28;20193;-53
2022/07/28 04:37:26;;;;;;;8.90;3.20;;;;;;;7.47;100.00;96915.84;10366440;28;20205;-51
2022/07/28 04:42:26;;;;;;;7.53;2.80;;;;;;;7.82;100.00;96908.50;10367229;28;20717;-51
2022/07/28 04:47:28;;;;;;;7.13;2.80;;;;;;;8.08;100.00;96915.81;10366730;28;20319;-55
2022/07/28 04:52:28;;;;;;;8.07;3.27;;;;;;;8.33;100.00;96902.25;10366639;28;20204;-54
2022/07/28 04:57:29;;;;;;;6.03;2.93;;;;;;;8.49;100.00;96904.31;10366872;28;20639;-51
2022/07/28 05:02:29;;;;;;;4.57;3.00;;;;;;;8.73;100.00;96903.06;10366234;28;20664;-51
2022/07/28 05:07:30;;;;;;;6.00;3.07;;;;;;;9.10;100.00;96908.31;10366729;28;20228;-53
2022/07/28 05:12:30;;;;;;;8.33;3.07;;;;;;;9.44;100.00;96897.31;10366596;28;20201;-52
2022/07/28 05:17:30;;;;;;;5.47;3.00;;;;;;;9.65;100.00;96896.28;10369038;28;20275;-53
2022/07/28 05:22:44;;;;;;;10.23;3.00;;;;;;;9.81;100.00;96890.38;10374053;28;20193;-51
2022/07/28 05:27:45;;;;;;;4.00;2.47;;;;;;;10.18;100.00;96884.19;10373553;28;20585;-53
2022/07/28 05:32:47;;;;;;;6.63;3.37;;;;;;;10.63;98.07;96880.69;10373815;28;20185;-57
2022/07/28 05:37:48;;;;;;;4.17;2.47;;;;;;;11.10;94.19;96876.88;10373318;28;20218;-52
2022/07/28 05:42:48;;;;;;;5.67;2.77;;;;;;;11.49;91.66;96865.91;10373603;28;20196;-51
2022/07/28 05:47:51;;;;;;;11.20;2.90;;;;;;;11.88;89.56;96861.94;10371983;28;20316;-53
2022/07/28 05:52:51;;;;;;;4.93;2.67;;;;;;;12.56;87.69;96878.47;10372976;28;20201;-57
2022/07/28 05:57:53;;;;;;;5.47;2.22;;;;;;;12.61;84.57;96855.13;10372836;28;20754;-54
2022/07/28 06:02:53;;;;;;;3.88;2.50;;;;;;;12.92;83.53;96859.66;10372562;28;20276;-55
2022/07/28 06:07:54;;;;;;;6.07;2.22;;;;;;;13.17;81.52;96848.09;10370287;28;20707;-52
2022/07/28 06:12:55;;;;;;;6.38;2.50;;;;;;;13.86;79.81;96839.59;10372100;28;20558;-54
2022/07/28 06:17:55;;;;;;;4.90;2.33;;;;;;;14.85;77.33;96830.09;10371559;28;20283;-55
2022/07/28 06:22:55;;;;;;;6.20;2.33;;;;;;;16.01;71.23;96759.81;10371987;28;20680;-56
2022/07/28 06:27:58;;;;;;;20.13;3.95;;;;;;;16.49;69.09;96742.50;10370892;28;20287;-57
2022/07/28 06:32:58;;;;;;;10.48;2.58;;;;;;;17.39;63.97;96681.66;10371765;28;20245;-54
2022/07/28 06:37:59;;;;;;;8.05;2.10;;;;;;;17.94;64.55;96737.22;10386561;28;20541;-58
2022/07/28 06:42:59;;;;;;;5.55;1.70;;;;;;;18.77;54.44;96552.81;10370968;28;20257;-58
2022/07/28 06:47:59;;;;;;;14.05;2.60;;;;;;;19.08;52.70;96549.38;10370608;28;20604;-57
2022/07/28 06:53:00;;;;;;;3.83;1.30;;;;;;;19.06;54.13;96610.66;10370324;28;20328;-59
2022/07/28 06:58:01;;;;;;;4.00;1.40;;;;;;;19.60;51.32;96560.66;10366676;28;20692;-59
2022/07/28 07:03:01;;;;;;;8.98;1.20;;;;;;;20.29;51.60;96584.56;10365207;28;20934;-59
2022/07/28 07:08:01;;;;;;;5.53;1.30;;;;;;;20.89;48.58;96531.63;10365318;28;20382;-57
2022/07/28 07:13:02;;;;;;;9.23;1.65;;;;;;;21.57;45.22;96466.44;10366740;28;20193;-57
2022/07/28 07:18:02;;;;;;;7.32;1.88;;;;;;;21.33;46.32;96497.56;10365497;28;20237;-59
2022/07/28 07:23:03;;;;;;;9.10;3.00;;;;;;;20.01;49.23;96533.72;10355371;28;20732;-59
2022/07/28 07:28:03;;;;;;;14.38;3.22;;;;;;;20.75;47.37;96517.69;10361801;28;20220;-58
2022/07/28 07:33:03;;;;;;;8.77;2.97;;;;;;;21.03;47.13;96541.88;10353791;28;20216;-56
2022/07/28 07:38:04;;;;;;;9.70;2.97;;;;;;;21.89;46.29;96543.41;10349164;28;20905;-58
2022/07/28 07:43:04;;;;;;;9.70;4.03;;;;;;;22.54;43.51;96480.16;10356843;28;20759;-58
2022/07/28 07:48:05;;;;;;;6.22;2.95;;;;;;;22.54;44.00;96520.22;10360664;28;20239;-58
2022/07/28 07:53:05;;;;;;;9.70;2.95;;;;;;;21.95;43.75;96499.78;10358393;28;20210;-57
2022/07/28 07:58:06;;;;;;;6.35;2.83;;;;;;;23.06;40.77;96455.16;10360788;28;20275;-55
2022/07/28 08:03:06;;;;;;;13.80;3.22;;;;;;;22.82;40.16;96406.41;10361138;28;20197;-58
2022/07/28 08:08:07;;;;;;;8.20;3.35;;;;;;;22.55;42.46;96479.13;10360431;28;20255;-58
2022/07/28 08:13:07;;;;;;;10.45;3.33;;;;;;;24.24;39.04;96454.16;10360354;28;20264;-51
2022/07/28 08:18:07;;;;;;;7.72;4.13;;;;;;;24.30;39.47;96463.06;10360179;28;20224;-55
2022/07/28 08:23:08;;;;;;;9.25;4.63;;;;;;;23.65;40.07;96473.47;10359019;28;20197;-58
2022/07/28 08:28:08;;;;;;;9.60;4.10;;;;;;;23.51;39.01;96430.22;10360384;28;20225;-58
2022/07/28 08:33:08;;;;;;;8.98;4.45;;;;;;;23.07;41.60;96491.53;10360690;28;20193;-55
2022/07/28 08:38:11;;;;;;;11.65;4.40;;;;;;;23.60;38.22;96417.22;10357040;28;20267;-53
2022/07/28 08:43:24;;;;;;;12.93;6.35;;;;;;;22.97;40.57;96449.41;10357095;28;20432;-59
2022/07/28 08:48:26;;;;;;;15.18;6.88;;;;;;;23.26;40.00;96454.69;10358009;28;20221;-57
2022/07/28 08:53:28;;;;;;;18.15;7.97;;;;;;;23.17;40.12;96446.31;10366144;28;20272;-58
2022/07/28 08:58:30;;;;;;;16.23;8.15;;;;;;;23.48;39.81;96458.25;10366925;28;20263;-59
2022/07/28 09:03:30;;;;;;;22.70;9.75;;;;;;;23.81;39.64;96477.16;10367800;28;20259;-59
2022/07/28 09:08:31;;;;;;;18.38;7.97;;;;;;;23.97;38.26;96427.38;10367268;28;20247;-56
2022/07/28 09:13:31;;;;;;;23.15;11.07;;;;;;;24.60;37.61;96441.19;10367868;28;20185;-60
2022/07/28 09:18:32;;;;;;;24.67;12.00;;;;;;;26.20;34.86;96412.78;10365949;28;20355;-59
2022/07/28 09:23:42;;;;;;;16.38;8.48;;;;;;;25.56;36.05;96415.44;10365123;28;20271;-60
2022/07/28 09:28:51;;;;;;;22.15;10.98;;;;;;;25.00;37.26;96431.91;10366046;28;20217;-60
2022/07/28 09:33:57;;;;;;;25.15;11.75;;;;;;;25.95;35.58;96419.66;10366669;28;20297;-57
2022/07/28 09:38:57;;;;;;;22.88;10.50;;;;;;;26.23;35.23;96423.78;10366594;28;20304;-58
2022/07/28 09:43:58;;;;;;;17.80;9.75;;;;;;;25.33;37.15;96443.47;10365747;28;20225;-58
2022/07/28 09:48:59;;;;;;;19.60;10.73;;;;;;;26.07;34.65;96382.66;10365802;28;20383;-57
2022/07/28 09:54:10;;;;;;;19.50;10.15;;;;;;;25.35;36.62;96408.34;10364411;28;20445;-57
2022/07/28 09:59:12;;;;;;;20.38;10.35;;;;;;;25.54;36.34;96422.13;10361218;28;20591;-56
2022/07/28 10:04:12;;;;;;;21.67;10.30;;;;;;;25.78;34.97;96391.13;10364648;28;20221;-59
2022/07/28 10:09:13;;;;;;;17.30;9.40;;;;;;;24.91;37.02;96412.81;10365472;28;20719;-58
2022/07/28 10:14:14;;;;;;;21.80;10.88;;;;;;;25.21;35.94;96395.34;10365534;28;20185;-58
2022/07/28 10:19:15;;;;;;;24.83;12.88;;;;;;;26.02;35.78;96416.75;10364041;28;20233;-56
2022/07/28 10:24:21;;;;;;;20.50;9.30;;;;;;;26.57;35.58;96423.34;10364176;28;20212;-57
2022/07/28 10:29:23;;;;;;;18.27;9.65;;;;;;;27.51;31.48;96325.44;10344330;28;20225;-57
2022/07/28 10:34:33;;;;;;;22.80;13.80;;;;;;;27.28;34.06;96389.50;10362372;28;20206;-58
2022/07/28 10:39:42;;;;;;;28.17;15.02;;;;;;;28.28;31.37;96346.63;10363198;28;20217;-57
2022/07/28 10:44:44;;;;;;;46.75;24.00;;;;;;;26.19;34.63;96363.66;10362076;28;20217;-56
2022/07/28 10:49:44;;;;;;;35.95;22.55;;;;;;;27.12;33.87;96383.34;10361104;28;20240;-57
2022/07/28 10:54:59;;;;;;;46.95;21.08;;;;;;;26.60;33.28;96326.09;10362611;28;20282;-55
2022/07/28 11:00:05;;;;;;;28.38;15.02;;;;;;;27.63;33.19;96379.75;10360492;28;20251;-56
2022/07/28 11:05:24;;;;;;;32.90;18.75;;;;;;;28.39;30.96;96326.63;10361991;28;20214;-56
2022/07/28 11:10:24;;;;;;;19.75;12.23;;;;;;;27.96;32.21;96344.38;10362832;28;20209;-58
2022/07/28 11:15:28;;;;;;;60.33;35.20;;;;;;;28.40;30.81;96317.44;10361131;28;20192;-53
2022/07/28 11:20:50;;;;;;;59.70;36.33;;;;;;;28.57;29.10;96254.25;10380870;22;20236;-59
2022/07/28 11:26:19;;;;;;;45.88;28.02;;;;;;;24.13;35.04;96244.47;10402942;28;20558;-58
2022/07/28 11:31:42;;;;;;;38.13;21.58;;;;;;;26.01;33.34;96291.66;10402614;28;20288;-57
2022/07/28 11:36:56;;;;;;;66.47;37.60;;;;;;;24.21;35.47;96269.97;10402031;28;20199;-58
2022/07/28 11:41:57;;;;;;;39.72;22.15;;;;;;;26.75;32.79;96327.97;10401458;28;20199;-60
2022/07/28 11:47:17;;;;;;;21.60;14.50;;;;;;;28.32;31.57;96344.19;10401461;28;20219;-59
2022/07/28 11:52:19;;;;;;;42.58;24.05;;;;;;;28.69;31.20;96327.50;10399138;28;20192;-59
2022/07/28 11:57:22;;;;;;;44.03;24.08;;;;;;;30.24;28.88;96316.56;10401470;28;20239;-60
2022/07/28 12:02:25;;;;;;;39.08;20.55;;;;;;;27.49;32.12;96290.75;10401390;28;20204;-58
2022/07/28 12:07:27;;;;;;;35.90;20.27;;;;;;;28.04;32.15;96325.75;10400231;28;20223;-60
2022/07/28 12:12:28;;;;;;;40.70;21.95;;;;;;;29.27;30.70;96309.72;10382145;28;20235;-58
2022/07/28 12:17:32;;;;;;;34.78;18.77;;;;;;;29.63;30.12;96290.38;10382768;28;20773;-60
2022/07/28 12:22:32;;;;;;;21.00;11.90;;;;;;;29.64;29.60;96286.59;10401289;28;20192;-60
2022/07/28 12:27:34;;;;;;;24.15;13.13;;;;;;;29.43;29.93;96267.94;10401071;28;20829;-60
2022/07/28 12:32:34;;;;;;;22.42;13.25;;;;;;;31.07;28.61;96309.88;10400668;28;20223;-60
2022/07/28 12:37:34;;;;;;;17.85;10.30;;;;;;;29.23;30.21;96252.00;10401582;28;20216;-58
2022/07/28 12:42:36;;;;;;;17.98;10.98;;;;;;;30.16;28.72;96257.00;10381995;28;20212;-59
2022/07/28 12:47:37;;;;;;;19.42;11.75;;;;;;;29.47;28.77;96223.09;10400453;28;20676;-59
2022/07/28 12:52:37;;;;;;;18.33;10.68;;;;;;;30.71;28.21;96259.09;10400919;28;20203;-60
2022/07/28 12:57:41;;;;;;;17.38;10.80;;;;;;;31.18;27.62;96237.41;10400664;28;20196;-59
2022/07/28 13:02:42;;;;;;;19.08;11.27;;;;;;;30.39;28.99;96249.88;10400071;28;20196;-58
2022/07/28 13:07:42;;;;;;;17.80;11.73;;;;;;;30.05;29.47;96249.03;10398063;28;20213;-58
2022/07/28 13:12:43;;;;;;;16.77;11.27;;;;;;;30.93;27.21;96210.53;10396593;28;20505;-57
2022/07/28 13:17:52;;;;;;;21.65;10.63;;;;;;;32.15;26.28;96227.22;10381411;28;20558;-60
2022/07/28 13:22:53;;;;;;;20.35;11.23;;;;;;;31.62;27.49;96223.28;10397056;28;20629;-59
2022/07/28 13:27:53;;;;;;;16.70;9.85;;;;;;;31.95;26.88;96219.56;10399120;28;20270;-59
2022/07/28 13:32:55;;;;;;;15.63;9.73;;;;;;;32.36;26.60;96216.69;10399426;28;20821;-60
2022/07/28 13:37:55;;;;;;;16.80;10.45;;;;;;;31.58;26.91;96210.63;10404843;28;20486;-61
2022/07/28 13:42:56;;;;;;;18.23;10.47;;;;;;;29.32;27.98;96099.19;10411061;28;20296;-60
2022/07/28 13:47:56;;;;;;;18.73;9.90;;;;;;;29.24;28.06;96118.72;10409361;28;20479;-60
2022/07/28 13:52:56;;;;;;;14.53;9.23;;;;;;;31.09;27.41;96192.13;10410709;28;20446;-62
2022/07/28 13:57:57;;;;;;;18.65;10.05;;;;;;;29.86;28.35;96176.16;10409861;28;20463;-60
2022/07/28 14:02:57;;;;;;;16.17;9.70;;;;;;;31.44;27.88;96233.09;10409195;28;20192;-57
2022/07/28 14:07:57;;;;;;;15.60;9.75;;;;;;;32.32;25.58;96194.00;10409686;28;20487;-60
2022/07/28 14:12:58;;;;;;;18.37;10.87;;;;;;;32.91;25.33;96182.19;10410492;28;20861;-61
2022/07/28 14:17:58;;;;;;;25.80;11.07;;;;;;;32.41;24.90;96130.91;10407381;28;20482;-60
2022/07/28 14:22:58;;;;;;;20.40;10.77;;;;;;;33.27;25.38;96202.13;10406688;28;20501;-61
2022/07/28 14:27:59;;;;;;;19.70;10.73;;;;;;;32.62;25.68;96177.25;10408314;28;20558;-60
2022/07/28 14:32:59;;;;;;;17.23;10.03;;;;;;;32.62;24.83;96125.72;10407813;28;20451;-58
2022/07/28 14:38:00;;;;;;;15.07;9.40;;;;;;;32.29;26.10;96188.41;10407498;28;20461;-60
2022/07/28 14:43:00;;;;;;;18.35;10.65;;;;;;;33.79;24.93;96201.41;10407261;28;20195;-60
2022/07/28 14:48:00;;;;;;;14.67;10.00;;;;;;;34.51;24.26;96196.41;10405811;28;20230;-60
2022/07/28 14:53:02;;;;;;;19.10;9.63;;;;;;;32.12;25.79;96114.00;10408247;28;20933;-60
2022/07/28 14:58:02;;;;;;;15.30;9.45;;;;;;;32.94;25.53;96151.72;10410074;28;20538;-60
2022/07/28 15:03:03;;;;;;;20.58;10.20;;;;;;;31.68;25.73;96104.00;10410099;28;20644;-59
2022/07/28 15:08:03;;;;;;;18.85;10.77;;;;;;;32.21;26.73;96170.97;10410421;28;20233;-58
2022/07/28 15:13:03;;;;;;;16.63;10.15;;;;;;;32.94;25.67;96172.63;10411022;28;20201;-59
2022/07/28 15:18:04;;;;;;;16.73;9.83;;;;;;;32.57;25.93;96139.41;10410253;28;20242;-56
2022/07/28 15:23:05;;;;;;;16.58;10.38;;;;;;;32.37;25.57;96136.13;10410162;28;20542;-60
2022/07/28 15:28:05;;;;;;;19.38;8.98;;;;;;;32.52;25.97;96148.50;10410212;28;20224;-58
2022/07/28 15:33:06;;;;;;;13.43;8.30;;;;;;;33.58;24.65;96155.81;10410076;28;20192;-58
2022/07/28 15:38:06;;;;;;;13.67;9.03;;;;;;;32.14;26.25;96122.63;10409480;28;20533;-57
2022/07/28 15:43:06;;;;;;;21.37;11.80;;;;;;;32.63;26.20;96144.38;10409600;28;20497;-59
2022/07/28 15:48:07;;;;;;;21.07;10.67;;;;;;;32.49;26.07;96158.03;10409070;28;20490;-57
2022/07/28 15:53:07;;;;;;;24.27;11.75;;;;;;;32.94;24.75;96097.47;10409388;28;21122;-57
2022/07/28 15:58:08;;;;;;;20.60;12.37;;;;;;;31.90;26.71;96117.53;10409067;28;20212;-58
2022/07/28 16:03:10;;;;;;;19.30;12.30;;;;;;;32.14;26.60;96138.09;10408774;28;20445;-58
2022/07/28 16:08:10;;;;;;;21.80;11.80;;;;;;;32.69;26.10;96170.28;10407636;28;20232;-56
2022/07/28 16:13:10;;;;;;;17.57;11.83;;;;;;;31.01;27.95;96135.22;10409122;28;20204;-58
2022/07/28 16:18:11;;;;;;;32.85;11.90;;;;;;;30.41;28.55;96153.91;10408145;28;20474;-56
2022/07/28 16:23:11;;;;;;;22.07;10.90;;;;;;;29.66;29.15;96130.53;10408169;28;20197;-58
2022/07/28 16:28:11;;;;;;;22.00;10.60;;;;;;;28.54;31.07;96160.50;10408379;28;20490;-60
2022/07/28 16:33:12;;;;;;;20.95;10.82;;;;;;;27.37;32.16;96140.41;10408298;28;20443;-59
2022/07/28 16:38:12;;;;;;;19.70;8.93;;;;;;;26.91;33.30;96185.50;10407936;28;20215;-60
2022/07/28 16:43:13;;;;;;;15.93;7.90;;;;;;;27.04;33.44;96201.88;10407711;28;20209;-59
2022/07/28 16:48:13;;;;;;;13.27;8.57;;;;;;;26.46;32.79;96164.66;10407845;28;20518;-59
2022/07/28 16:53:15;;;;;;;20.17;9.73;;;;;;;26.50;33.73;96197.13;10408088;28;20207;-59
2022/07/28 16:58:17;;;;;;;21.55;10.00;;;;;;;25.88;35.00;96232.03;10408200;28;20550;-58
2022/07/28 17:03:17;;;;;;;14.50;8.25;;;;;;;25.29;35.99;96241.25;10407900;28;20283;-58
2022/07/28 17:08:18;;;;;;;14.85;7.63;;;;;;;25.27;36.17;96265.63;10416818;28;20339;-57
2022/07/28 17:13:20;;;;;;;11.68;7.05;;;;;;;25.06;36.55;96264.69;10411341;28;20250;-55
2022/07/28 17:18:20;;;;;;;15.52;7.32;;;;;;;25.00;35.80;96252.34;10432023;23;20881;-53
2022/07/28 17:23:21;;;;;;;16.55;7.10;;;;;;;24.61;38.05;96300.88;10373911;28;20281;-55
2022/07/28 17:28:22;;;;;;;12.30;6.53;;;;;;;23.94;38.01;96280.72;10373697;28;20242;-56
2022/07/28 17:33:23;;;;;;;12.52;6.30;;;;;;;23.85;38.04;96291.84;10373365;28;20201;-58
2022/07/28 17:38:24;;;;;;;15.68;6.60;;;;;;;23.24;39.58;96315.16;10373587;28;20209;-56
2022/07/28 17:43:26;;;;;;;14.60;6.68;;;;;;;23.33;40.18;96357.25;10373034;28;20648;-57
2022/07/28 17:48:27;;;;;;;13.52;7.35;;;;;;;23.37;39.27;96333.53;10372973;28;20248;-58
2022/07/28 17:53:28;;;;;;;20.27;8.18;;;;;;;23.22;39.88;96336.00;10373355;28;20621;-60
2022/07/28 17:58:30;;;;;;;14.50;7.07;;;;;;;22.86;41.07;96365.63;10382791;28;20271;-60
2022/07/28 18:03:30;;;;;;;15.95;7.88;;;;;;;22.74;41.29;96363.06;10368792;28;20190;-57
2022/07/28 18:08:31;;;;;;;20.17;8.80;;;;;;;22.72;41.62;96388.38;10385726;28;20220;-56
2022/07/28 18:13:31;;;;;;;18.52;7.45;;;;;;;22.37;42.32;96392.03;10390552;28;20192;-58
2022/07/28 18:18:32;;;;;;;10.93;6.20;;;;;;;22.35;42.96;96410.16;10388563;28;20229;-56
2022/07/28 18:23:32;;;;;;;16.83;6.60;;;;;;;22.15;43.06;96418.56;10374761;28;20221;-59
2022/07/28 18:28:32;;;;;;;8.98;4.78;;;;;;;21.79;43.32;96426.66;10371331;28;20577;-59
2022/07/28 18:33:33;;;;;;;8.13;4.75;;;;;;;21.82;42.16;96382.69;10370654;28;20630;-56
2022/07/28 18:38:33;;;;;;;11.10;4.18;;;;;;;21.54;43.96;96421.59;10370587;28;20700;-59
2022/07/28 18:43:33;;;;;;;7.28;3.90;;;;;;;21.34;43.09;96404.06;10369328;28;20571;-56
2022/07/28 18:48:34;;;;;;;8.93;4.00;;;;;;;21.12;43.13;96403.06;10369770;28;20678;-58
2022/07/28 18:53:34;;;;;;;9.85;4.72;;;;;;;20.77;45.87;96468.50;10380067;28;20576;-55
2022/07/28 18:58:35;;;;;;;9.43;4.53;;;;;;;19.69;49.27;96531.94;10374694;28;20751;-55
2022/07/28 19:03:35;;;;;;;10.68;3.90;;;;;;;19.52;50.04;96552.13;10388480;28;20276;-54
2022/07/28 19:08:35;;;;;;;11.18;4.53;;;;;;;18.78;53.12;96613.63;10388924;28;20216;-55
2022/07/28 19:13:36;;;;;;;9.88;3.78;;;;;;;18.42;53.45;96609.66;10398986;28;20204;-52
2022/07/28 19:18:36;;;;;;;13.02;4.22;;;;;;;17.89;54.54;96625.72;10395146;28;20311;-55
2022/07/28 19:23:36;;;;;;;9.02;3.90;;;;;;;17.72;55.43;96633.19;10380731;28;20212;-53
2022/07/28 19:28:37;;;;;;;9.35;4.00;;;;;;;17.43;56.08;96646.63;10401420;28;20228;-51
2022/07/28 19:33:37;;;;;;;6.72;3.97;;;;;;;17.17;56.99;96657.19;10386322;28;20231;-52
2022/07/28 19:38:38;;;;;;;11.15;4.18;;;;;;;16.87;58.40;96673.34;10384782;28;20287;-53
2022/07/28 19:43:38;;;;;;;9.18;4.43;;;;;;;16.69;59.00;96679.97;10393961;28;20223;-53
2022/07/28 19:48:38;;;;;;;8.73;4.60;;;;;;;16.54;59.71;96695.16;10408501;28;20256;-52
2022/07/28 19:53:39;;;;;;;9.18;4.60;;;;;;;16.33;60.34;96703.94;10408926;28;20283;-52
2022/07/28 19:58:39;;;;;;;8.02;3.90;;;;;;;16.20;60.52;96700.22;10408505;28;20211;-54
2022/07/28 20:03:39;;;;;;;8.57;4.30;;;;;;;16.03;61.32;96702.31;10408318;28;20189;-54
2022/07/28 20:08:40;;;;;;;7.47;4.53;;;;;;;15.88;61.80;96704.22;10407682;28;20885;-54
2022/07/28 20:13:41;;;;;;;5.60;3.92;;;;;;;15.75;61.86;96706.72;10408002;28;20737;-52
2022/07/28 20:18:42;;;;;;;8.02;4.15;;;;;;;15.63;62.53;96709.03;10407455;28;20232;-53
2022/07/28 20:23:42;;;;;;;14.57;4.40;;;;;;;15.51;62.84;96703.44;10407090;28;20215;-54
2022/07/28 20:28:43;;;;;;;5.38;3.90;;;;;;;15.29;63.58;96716.59;10359261;28;20275;-58
2022/07/28 20:33:43;;;;;;;8.25;3.63;;;;;;;15.14;64.14;96723.72;10359278;28;20193;-57
2022/07/28 20:38:44;;;;;;;9.88;3.78;;;;;;;15.00;64.69;96720.13;10407081;28;20266;-56
2022/07/28 20:43:44;;;;;;;7.15;3.50;;;;;;;14.89;65.31;96724.03;10407625;28;20197;-59
2022/07/28 20:48:45;;;;;;;6.13;3.50;;;;;;;14.78;65.84;96725.31;10377674;28;20772;-59
2022/07/28 20:53:46;;;;;;;10.27;3.83;;;;;;;14.57;66.43;96736.56;10366147;28;20185;-58
2022/07/28 20:58:46;;;;;;;6.05;3.38;;;;;;;14.39;67.51;96729.00;10366577;28;20212;-55
2022/07/28 21:03:46;;;;;;;11.35;3.13;;;;;;;14.26;68.01;96736.72;10366276;28;20612;-57
2022/07/28 21:08:47;;;;;;;7.00;3.08;;;;;;;14.08;68.95;96742.31;10365877;28;20233;-57
2022/07/28 21:13:47;;;;;;;4.53;3.08;;;;;;;13.99;69.29;96740.75;10366406;28;20205;-50
2022/07/28 21:18:48;;;;;;;6.60;3.20;;;;;;;13.92;69.50;96735.38;10365698;28;20268;-53
2022/07/28 21:23:48;;;;;;;9.30;3.10;;;;;;;13.72;70.55;96742.91;10366210;28;20193;-51
2022/07/28 21:34:08;;;;;;;4.78;2.42;;;;;;;13.60;70.93;96749.56;10366497;28;20193;-50
2022/07/28 21:39:09;;;;;;;6.93;2.70;;;;;;;13.48;71.78;96739.44;10365836;28;20213;-51
2022/07/28 21:44:11;;;;;;;6.68;2.67;;;;;;;13.32;72.32;96750.88;10365785;28;20190;-52
2022/07/28 21:49:11;;;;;;;7.97;2.45;;;;;;;13.20;73.30;96758.31;10365858;28;20224;-51
2022/07/28 21:54:12;;;;;;;6.40;2.28;;;;;;;13.14;73.86;96750.28;10365373;28;20200;-52
2022/07/28 21:59:12;;;;;;;5.00;2.20;;;;;;;12.97;74.52;96750.38;10367980;28;20244;-51
2022/07/28 22:04:12;;;;;;;4.15;2.03;;;;;;;12.93;74.73;96753.50;10372563;28;20573;-52
2022/07/28 22:09:13;;;;;;;4.90;2.63;;;;;;;12.81;75.63;96761.75;10372511;28;20609;-50
2022/07/28 22:14:13;;;;;;;3.80;2.50;;;;;;;12.80;75.69;96757.50;10372380;28;20682;-53
2022/07/28 22:19:14;;;;;;;6.15;2.20;;;;;;;12.76;76.47;96771.97;10371338;28;20240;-52
2022/07/28 22:24:14;;;;;;;12.85;3.20;;;;;;;12.72;76.60;96775.91;10372148;28;20221;-50
2022/07/28 22:29:15;;;;;;;5.60;2.63;;;;;;;12.76;76.32;96777.22;10371588;28;20634;-51
2022/07/28 22:34:16;;;;;;;7.30;3.75;;;;;;;12.78;76.19;96780.50;10371790;28;20189;-51
2022/07/28 22:39:16;;;;;;;9.27;3.95;;;;;;;12.84;76.49;96782.44;10370588;28;20308;-58
2022/07/28 22:44:16;;;;;;;10.48;4.95;;;;;;;12.80;76.52;96781.16;10370368;28;20197;-54
2022/07/28 22:49:17;;;;;;;13.25;4.53;;;;;;;12.71;77.25;96779.53;10370687;28;20220;-58
2022/07/28 22:54:17;;;;;;;10.77;4.75;;;;;;;12.56;78.39;96775.97;10370869;28;20276;-57
2022/07/28 22:59:18;;;;;;;13.88;6.20;;;;;;;12.55;78.75;96776.94;10370570;28;20213;-54
2022/07/28 23:04:18;;;;;;;14.63;7.15;;;;;;;12.48;78.98;96780.25;10370074;28;20288;-56
2022/07/28 23:09:18;;;;;;;18.13;7.32;;;;;;;12.23;80.14;96794.38;10369872;28;20846;-51
2022/07/28 23:14:19;;;;;;;21.87;9.60;;;;;;;12.38;79.74;96789.28;10369987;28;20578;-51
2022/07/28 23:19:19;;;;;;;26.92;12.45;;;;;;;12.46;79.34;96784.00;10369233;28;20244;-51